Time;durP1;ratioP1;P1;durP2;ratioP2;P2;SDS_P1;SDS_P2;PMS_P1;PMS_P2;Temp;Humidity;BMP_temperature;BMP_pressure;BME280_temperature;BME280_humidity;BME280_pressure;Samples;Min_cycle;Max_cycle;Signal;HPM_P1;HPM_P2
2022/09/10 00:00:01;;;;;;;1.30;1.00;;;20.10;48.00;;;;;;20458;6856;310782;-84
2022/09/10 00:02:27;;;;;;;2.30;1.20;;;20.10;48.50;;;;;;20471;6854;309079;-85
2022/09/10 00:04:53;;;;;;;1.00;0.90;;;20.50;47.00;;;;;;20472;6855;309134;-84
2022/09/10 00:07:20;;;;;;;1.70;0.90;;;20.40;46.80;;;;;;20480;6855;289961;-85
2022/09/10 00:09:45;;;;;;;1.77;0.90;;;20.50;47.20;;;;;;20694;6855;117785;-86
2022/09/10 00:12:11;;;;;;;2.35;1.10;;;20.30;47.40;;;;;;20677;6855;123915;-87
2022/09/10 00:14:36;;;;;;;1.43;1.20;;;19.90;47.90;;;;;;20696;6855;120414;-86
2022/09/10 00:17:02;;;;;;;1.17;1.00;;;19.60;48.30;;;;;;20691;6855;117284;-85
2022/09/10 00:19:30;;;;;;;1.42;0.95;;;19.60;48.90;;;;;;20476;6855;309599;-84
2022/09/10 00:21:54;;;;;;;2.00;1.10;;;19.60;48.90;;;;;;20464;6855;278777;-85
2022/09/10 00:24:22;;;;;;;0.80;0.80;;;19.90;48.30;;;;;;20706;6855;117959;-84
2022/09/10 00:26:47;;;;;;;1.80;1.00;;;19.80;48.20;;;;;;20687;6855;117409;-86
2022/09/10 00:29:17;;;;;;;1.23;1.10;;;19.60;48.30;;;;;;20681;6855;117355;-85
2022/09/10 00:31:38;;;;;;;2.17;1.10;;;19.30;48.60;;;;;;20456;6855;308301;-85
2022/09/10 00:34:04;;;;;;;1.33;1.02;;;19.50;49.40;;;;;;20675;6855;129437;-85
2022/09/10 00:36:31;;;;;;;1.97;1.10;;;19.40;49.10;;;;;;20464;6855;308589;-87
2022/09/10 00:38:56;;;;;;;1.57;1.03;;;19.40;49.10;;;;;;20680;6856;117518;-86
2022/09/10 00:41:21;;;;;;;1.40;1.00;;;19.40;49.10;;;;;;20465;6856;346659;-84
2022/09/10 00:44:01;;;;;;;1.10;1.00;;;19.40;49.00;;;;;;20688;6856;117949;-84
2022/09/10 00:46:42;;;;;;;1.40;0.80;;;19.40;49.00;;;;;;20685;6856;117650;-85
2022/09/10 00:49:09;;;;;;;1.57;1.07;;;19.20;49.20;;;;;;20619;6856;119986;-84
2022/09/10 00:51:34;;;;;;;3.00;1.57;;;19.00;49.30;;;;;;20654;6856;117741;-86
2022/09/10 00:54:03;;;;;;;1.02;0.82;;;18.80;49.50;;;;;;20625;6856;120534;-86
2022/09/10 00:56:28;;;;;;;1.70;1.00;;;18.70;49.70;;;;;;20461;6856;278766;-84
2022/09/10 00:58:54;;;;;;;2.17;1.05;;;19.00;49.80;;;;;;20683;6856;117418;-84
2022/09/10 01:01:21;;;;;;;1.90;1.00;;;18.90;49.60;;;;;;20690;6856;117534;-85
2022/09/10 01:03:48;;;;;;;1.10;1.10;;;18.90;49.50;;;;;;20689;6856;117589;-86
2022/09/10 01:06:13;;;;;;;2.20;1.00;;;18.80;49.70;;;;;;20666;6856;122024;-84
2022/09/10 01:08:38;;;;;;;2.22;1.10;;;18.70;49.80;;;;;;20485;6856;283284;-86
2022/09/10 01:11:11;;;;;;;2.12;0.90;;;19.30;49.20;;;;;;20475;6856;304169;-85
2022/09/10 01:13:37;;;;;;;1.60;0.97;;;19.30;49.20;;;;;;20458;6854;312994;-86
2022/09/10 01:16:19;;;;;;;1.17;0.90;;;19.60;48.50;;;;;;20639;6855;118785;-85
2022/09/10 01:19:24;;;;;;;1.37;0.90;;;19.60;48.60;;;;;;20674;6855;118183;-84
2022/09/10 01:22:12;;;;;;;1.67;1.23;;;19.30;48.90;;;;;;20474;6855;308773;-86
2022/09/10 01:24:55;;;;;;;2.50;1.07;;;19.40;48.70;;;;;;20080;6855;117407;-85
2022/09/10 01:27:37;;;;;;;2.40;0.83;;;19.40;48.70;;;;;;20671;6855;118382;-84
2022/09/10 01:30:16;;;;;;;1.33;1.13;;;19.10;49.00;;;;;;20661;6855;117754;-86
2022/09/10 01:32:53;;;;;;;1.20;1.00;;;18.90;49.60;;;;;;20460;6855;279822;-85
2022/09/10 01:35:18;;;;;;;1.80;1.00;;;19.10;51.00;;;;;;20550;6855;117518;-85
2022/09/10 01:37:47;;;;;;;1.65;1.00;;;19.10;50.60;;;;;;20458;6855;338668;-84
2022/09/10 01:40:13;;;;;;;1.77;1.10;;;19.30;51.40;;;;;;20636;6855;118043;-85
2022/09/10 01:42:38;;;;;;;1.75;1.00;;;19.30;51.10;;;;;;20670;6855;117362;-85
2022/09/10 01:45:05;;;;;;;1.52;1.02;;;19.20;52.80;;;;;;20471;6855;308566;-85
2022/09/10 01:48:05;;;;;;;0.97;0.97;;;19.20;51.70;;;;;;20679;6855;117306;-86
2022/09/10 01:50:56;;;;;;;1.20;0.83;;;19.10;51.60;;;;;;20683;6856;117692;-84
2022/09/10 01:53:41;;;;;;;1.00;0.90;;;18.90;51.70;;;;;;19882;6856;119123;-85
2022/09/10 01:56:40;;;;;;;1.73;0.93;;;18.70;51.90;;;;;;20437;6856;279617;-86
2022/09/10 01:59:08;;;;;;;1.37;1.00;;;19.00;51.70;;;;;;20455;6856;279826;-84
2022/09/10 02:01:37;;;;;;;1.53;0.80;;;19.40;51.20;;;;;;19933;6856;119770;-84
2022/09/10 02:04:02;;;;;;;1.55;0.98;;;19.30;51.00;;;;;;20423;6856;299147;-84
2022/09/10 02:06:28;;;;;;;2.03;0.73;;;19.40;51.00;;;;;;20667;6856;122275;-85
2022/09/10 02:08:55;;;;;;;2.93;0.87;;;19.30;50.90;;;;;;20472;6856;308246;-85
2022/09/10 02:11:20;;;;;;;1.10;0.80;;;19.40;51.00;;;;;;20680;6856;117487;-84
2022/09/10 02:13:47;;;;;;;1.30;0.70;;;19.10;51.30;;;;;;20682;6856;117515;-84
2022/09/10 02:16:22;;;;;;;0.87;0.60;;;19.00;51.10;;;;;;20653;6855;116615;-85
2022/09/10 02:18:48;;;;;;;1.53;0.77;;;18.70;51.20;;;;;;20624;6871;117587;-86
2022/09/10 02:21:14;;;;;;;1.27;0.80;;;18.70;51.70;;;;;;20420;6871;307981;-85
2022/09/10 02:23:43;;;;;;;2.58;1.20;;;19.00;51.40;;;;;;20638;6870;118025;-84
2022/09/10 02:26:10;;;;;;;2.43;1.07;;;19.00;51.40;;;;;;20582;6871;118072;-84
2022/09/10 02:28:35;;;;;;;2.03;1.00;;;18.80;51.60;;;;;;20391;6873;287969;-88
2022/09/10 02:31:01;;;;;;;2.53;1.35;;;19.00;52.50;;;;;;20491;6873;307619;-89
2022/09/10 02:33:26;;;;;;;2.43;1.20;;;19.40;52.60;;;;;;20669;6873;116621;-88
2022/09/10 02:35:53;;;;;;;4.20;0.97;;;19.30;52.20;;;;;;20628;6876;117097;-85
2022/09/10 02:38:20;;;;;;;1.97;1.20;;;19.00;52.40;;;;;;20482;6876;117393;-86
2022/09/10 02:40:45;;;;;;;3.07;1.20;;;18.70;52.80;;;;;;20359;6891;309288;-85
2022/09/10 02:43:11;;;;;;;1.65;1.20;;;19.10;53.40;;;;;;20330;6902;309938;-87
2022/09/10 02:45:37;;;;;;;1.30;0.97;;;19.10;53.40;;;;;;20459;6856;308270;-84
2022/09/10 02:48:03;;;;;;;1.53;0.90;;;19.40;53.00;;;;;;20671;6855;117946;-89
2022/09/10 02:50:29;;;;;;;1.70;1.10;;;19.20;52.90;;;;;;20686;6855;117749;-84
2022/09/10 02:52:54;;;;;;;2.30;1.10;;;18.80;53.20;;;;;;20423;6872;289038;-88
2022/09/10 02:55:20;;;;;;;1.90;1.10;;;18.90;54.00;;;;;;20433;6872;279583;-84
2022/09/10 02:57:46;;;;;;;1.87;1.20;;;19.30;54.10;;;;;;20439;6872;292118;-84
2022/09/10 03:00:13;;;;;;;1.05;0.95;;;19.40;53.00;;;;;;20404;6872;467912;-88
2022/09/10 03:02:39;;;;;;;1.43;0.80;;;19.40;53.00;;;;;;20427;6872;318177;-85
2022/09/10 03:05:04;;;;;;;2.28;1.10;;;19.50;52.70;;;;;;20414;6872;309373;-84
2022/09/10 03:07:29;;;;;;;1.47;1.13;;;19.60;52.80;;;;;;20634;6872;117962;-87
2022/09/10 03:09:55;;;;;;;1.10;0.97;;;19.40;52.80;;;;;;20608;6872;129362;-88
2022/09/10 03:12:21;;;;;;;3.00;1.20;;;18.70;54.10;;;;;;20642;6872;117741;-85
2022/09/10 03:14:47;;;;;;;1.40;0.90;;;18.70;53.60;;;;;;20631;6872;117445;-85
2022/09/10 03:17:13;;;;;;;2.83;0.90;;;18.30;54.50;;;;;;20616;6872;118058;-85
2022/09/10 03:19:40;;;;;;;1.70;1.00;;;18.30;54.50;;;;;;20416;6872;308813;-87
2022/09/10 03:22:05;;;;;;;1.50;0.95;;;18.50;55.90;;;;;;20412;6872;280450;-88
2022/09/10 03:24:31;;;;;;;3.07;1.10;;;18.80;55.40;;;;;;20394;6872;309694;-88
2022/09/10 03:26:57;;;;;;;2.28;0.80;;;18.90;54.70;;;;;;20597;6875;117552;-86
2022/09/10 03:29:23;;;;;;;1.23;1.00;;;18.90;54.70;;;;;;20555;6888;117586;-85
2022/09/10 03:31:50;;;;;;;2.13;1.27;;;18.60;55.00;;;;;;20660;6860;117566;-85
2022/09/10 03:34:15;;;;;;;1.67;1.15;;;18.30;55.40;;;;;;20371;6876;313479;-89
2022/09/10 03:36:41;;;;;;;3.20;1.07;;;18.50;56.80;;;;;;20575;6888;117845;-85
2022/09/10 03:39:06;;;;;;;3.08;1.25;;;18.40;56.30;;;;;;20600;6887;117984;-86
2022/09/10 03:41:32;;;;;;;2.10;1.20;;;18.30;56.50;;;;;;20379;6887;309261;-85
2022/09/10 03:43:59;;;;;;;0.93;0.93;;;18.40;57.60;;;;;;20547;6887;118698;-84
2022/09/10 03:46:25;;;;;;;1.83;1.00;;;18.50;57.70;;;;;;20364;6889;312811;-87
2022/09/10 03:48:51;;;;;;;4.27;0.80;;;18.50;57.70;;;;;;20581;6889;117556;-89
2022/09/10 03:51:16;;;;;;;2.10;1.10;;;18.50;57.40;;;;;;20374;6889;313085;-85
2022/09/10 03:53:42;;;;;;;2.45;1.02;;;18.60;57.20;;;;;;20379;6889;310408;-85
2022/09/10 03:56:07;;;;;;;1.37;1.10;;;18.80;56.00;;;;;;20363;6889;282684;-85
2022/09/10 03:58:34;;;;;;;1.50;0.90;;;19.10;55.80;;;;;;20579;6889;120687;-86
2022/09/10 04:01:00;;;;;;;2.57;1.20;;;19.00;55.60;;;;;;20526;6889;122937;-87
2022/09/10 04:03:26;;;;;;;1.10;0.77;;;18.40;56.40;;;;;;20570;6889;117810;-84
2022/09/10 04:05:52;;;;;;;2.42;1.10;;;18.30;56.20;;;;;;20365;6889;339296;-86
2022/09/10 04:08:17;;;;;;;2.50;1.07;;;18.50;57.20;;;;;;20363;6889;309341;-87
2022/09/10 04:10:43;;;;;;;3.78;1.02;;;18.80;56.80;;;;;;20373;6889;285440;-85
2022/09/10 04:13:09;;;;;;;2.00;1.23;;;18.80;56.10;;;;;;20579;6889;117788;-84
2022/09/10 04:15:36;;;;;;;1.77;0.97;;;18.80;56.10;;;;;;20580;6890;117790;-85
2022/09/10 04:18:00;;;;;;;1.70;0.70;;;18.50;56.50;;;;;;20562;6890;118595;-87
2022/09/10 04:20:26;;;;;;;1.50;1.10;;;18.20;56.90;;;;;;20378;6890;278852;-90
2022/09/10 04:22:52;;;;;;;1.20;1.10;;;18.40;57.10;;;;;;20586;6890;118087;-89
2022/09/10 04:25:18;;;;;;;0.98;0.93;;;18.20;57.60;;;;;;20565;6890;118300;-90
2022/09/10 04:27:43;;;;;;;1.97;1.07;;;18.20;57.60;;;;;;20596;6888;117948;-86
2022/09/10 04:30:09;;;;;;;1.15;0.98;;;18.00;57.70;;;;;;20641;6855;117583;-88
2022/09/10 04:32:34;;;;;;;1.43;1.03;;;17.90;58.00;;;;;;20696;6855;117838;-84
2022/09/10 04:35:05;;;;;;;1.73;1.03;;;17.80;58.30;;;;;;20709;6855;117404;-84
2022/09/10 04:37:31;;;;;;;3.43;1.07;;;17.80;58.50;;;;;;20503;6855;278598;-84
2022/09/10 04:39:58;;;;;;;1.57;0.97;;;18.00;58.80;;;;;;20476;6855;314436;-84
2022/09/10 04:42:24;;;;;;;1.93;1.23;;;18.50;58.10;;;;;;20625;6855;116762;-91
2022/09/10 04:44:49;;;;;;;1.00;0.90;;;18.50;57.50;;;;;;20624;6873;117952;-89
2022/09/10 04:47:15;;;;;;;2.60;0.80;;;18.30;57.70;;;;;;20684;6853;117228;-85
2022/09/10 04:49:42;;;;;;;1.10;1.02;;;18.10;57.90;;;;;;20482;6854;308193;-86
2022/09/10 04:52:10;;;;;;;1.37;0.97;;;18.30;57.90;;;;;;20475;6854;287873;-88
2022/09/10 04:54:36;;;;;;;2.10;1.00;;;18.60;56.90;;;;;;20687;6854;117989;-84
2022/09/10 04:57:04;;;;;;;1.83;1.03;;;18.60;56.70;;;;;;20716;6854;117622;-91
2022/09/10 04:59:31;;;;;;;2.33;1.12;;;18.40;57.80;;;;;;20506;6854;307459;-90
2022/09/10 05:01:58;;;;;;;1.10;1.00;;;18.40;57.30;;;;;;20499;6854;301164;-86
2022/09/10 05:04:23;;;;;;;1.53;1.00;;;18.70;56.80;;;;;;20681;6873;118202;-90
2022/09/10 05:06:49;;;;;;;1.27;0.90;;;18.60;56.50;;;;;;20753;6854;118064;-87
2022/09/10 05:09:18;;;;;;;0.73;0.70;;;18.30;56.70;;;;;;20696;6872;117537;-88
2022/09/10 05:11:48;;;;;;;2.33;1.00;;;18.10;57.10;;;;;;20691;6872;127259;-86
2022/09/10 05:14:12;;;;;;;1.30;0.90;;;18.10;57.30;;;;;;20440;6873;339697;-87
2022/09/10 05:16:39;;;;;;;1.40;1.10;;;18.10;57.60;;;;;;20454;6873;295565;-86
2022/09/10 05:19:06;;;;;;;1.17;0.70;;;18.40;56.90;;;;;;20687;6876;116676;-84
2022/09/10 05:21:33;;;;;;;1.62;0.85;;;18.40;56.60;;;;;;20419;6876;338797;-90
2022/09/10 05:24:00;;;;;;;1.60;0.90;;;18.50;56.50;;;;;;20431;6876;307858;-85
2022/09/10 05:26:26;;;;;;;1.02;0.80;;;18.70;56.20;;;;;;20457;6876;308912;-84
2022/09/10 05:28:58;;;;;;;1.40;1.27;;;18.80;55.60;;;;;;20452;6876;278847;-89
2022/09/10 05:31:22;;;;;;;0.80;0.80;;;19.00;55.20;;;;;;20625;6876;121903;-88
2022/09/10 05:33:47;;;;;;;1.40;0.90;;;18.80;55.30;;;;;;20382;6878;279540;-85
2022/09/10 05:36:13;;;;;;;1.42;1.00;;;18.80;55.70;;;;;;20427;6878;279564;-84
2022/09/10 05:38:40;;;;;;;0.77;0.77;;;18.90;55.50;;;;;;20620;6878;116381;-88
2022/09/10 05:41:05;;;;;;;1.60;1.10;;;18.70;55.50;;;;;;20428;6878;278342;-87
2022/09/10 05:43:31;;;;;;;1.07;1.00;;;18.70;56.10;;;;;;20579;6878;117354;-85
2022/09/10 05:45:58;;;;;;;1.50;1.00;;;18.70;56.10;;;;;;20602;6878;117561;-85
2022/09/10 05:48:25;;;;;;;1.73;0.83;;;18.20;57.00;;;;;;20620;6882;117629;-88
2022/09/10 05:50:51;;;;;;;1.07;0.97;;;18.20;56.90;;;;;;20658;6870;117511;-85
2022/09/10 05:53:16;;;;;;;1.13;1.00;;;18.20;58.40;;;;;;20435;6870;305124;-84
2022/09/10 05:55:42;;;;;;;1.62;1.08;;;18.30;58.00;;;;;;20397;6870;309463;-89
2022/09/10 05:58:08;;;;;;;1.33;1.00;;;18.90;56.60;;;;;;20446;6870;279814;-88
2022/09/10 06:00:35;;;;;;;0.90;0.90;;;18.90;56.60;;;;;;20663;6868;117286;-84
2022/09/10 06:03:00;;;;;;;2.77;1.10;;;18.50;57.40;;;;;;20652;6869;117161;-85
2022/09/10 06:05:26;;;;;;;1.85;1.05;;;18.50;56.60;;;;;;20441;6869;308534;-85
2022/09/10 06:07:52;;;;;;;3.10;1.00;;;18.60;56.80;;;;;;20617;6869;117958;-84
2022/09/10 06:10:18;;;;;;;1.55;0.80;;;18.50;56.60;;;;;;20422;6868;338227;-86
2022/09/10 06:12:56;;;;;;;;;;;;;;;;;;;;;
2022/09/10 06:15:22;;;;;;;1.37;1.03;;;18.90;55.90;;;;;;20302;6743;305332;-86
2022/09/10 06:17:58;;;;;;;1.02;0.93;;;19.10;55.40;;;;;;20578;6743;283053;-87
2022/09/10 06:20:35;;;;;;;1.00;0.90;;;19.30;55.00;;;;;;20716;6741;118247;-87
2022/09/10 06:23:10;;;;;;;1.17;0.90;;;19.10;55.10;;;;;;20897;6726;116890;-86
2022/09/10 06:25:47;;;;;;;1.00;0.90;;;18.80;56.10;;;;;;20582;6782;342414;-85
2022/09/10 06:28:23;;;;;;;1.73;1.00;;;19.00;55.60;;;;;;20478;6765;344213;-86
2022/09/10 06:30:58;;;;;;;1.07;0.97;;;19.00;55.60;;;;;;20598;6741;312140;-87
2022/09/10 06:33:34;;;;;;;1.33;0.70;;;19.30;55.20;;;;;;20880;6726;117419;-87
2022/09/10 06:36:13;;;;;;;2.10;1.15;;;19.00;55.20;;;;;;20562;6759;276451;-87
2022/09/10 06:38:48;;;;;;;1.93;0.90;;;19.10;55.60;;;;;;20658;6726;309508;-88
2022/09/10 06:41:34;;;;;;;1.70;0.77;;;19.30;55.30;;;;;;20966;6726;67937;-86
2022/09/10 06:44:00;;;;;;;1.67;0.93;;;19.10;55.00;;;;;;20620;6726;310381;-86
2022/09/10 06:46:36;;;;;;;0.67;0.60;;;19.10;55.00;;;;;;20850;6755;117845;-85
2022/09/10 06:49:11;;;;;;;0.93;0.90;;;19.00;55.00;;;;;;20843;6756;117965;-85
2022/09/10 06:51:49;;;;;;;0.83;0.60;;;18.40;55.60;;;;;;20824;6756;120836;-86
2022/09/10 06:54:33;;;;;;;1.10;0.70;;;18.40;55.60;;;;;;20508;6812;309823;-84
2022/09/10 06:57:03;;;;;;;1.00;0.70;;;18.60;56.40;;;;;;20568;6771;293819;-88
2022/09/10 06:59:37;;;;;;;3.50;0.93;;;19.00;55.40;;;;;;20825;6756;117372;-85
2022/09/10 07:02:12;;;;;;;0.90;0.80;;;18.90;55.20;;;;;;20791;6770;118134;-86
2022/09/10 07:04:47;;;;;;;1.23;0.67;;;18.70;55.40;;;;;;20737;6771;117917;-86
2022/09/10 07:07:23;;;;;;;1.27;0.77;;;18.50;55.70;;;;;;20574;6774;335366;-86
2022/09/10 07:09:58;;;;;;;0.70;0.67;;;18.70;55.80;;;;;;20822;6742;120656;-88
2022/09/10 07:12:35;;;;;;;2.13;0.80;;;18.90;55.10;;;;;;20536;6801;277123;-87
2022/09/10 07:15:11;;;;;;;1.40;0.80;;;18.90;55.70;;;;;;20594;6750;309804;-88
2022/09/10 07:17:46;;;;;;;1.03;0.80;;;19.50;54.20;;;;;;20672;6737;307745;-88
2022/09/10 07:20:23;;;;;;;0.70;0.70;;;19.50;54.20;;;;;;20497;6766;308426;-88
2022/09/10 07:22:59;;;;;;;1.03;1.00;;;19.70;54.00;;;;;;20763;6772;117301;-86
2022/09/10 07:25:34;;;;;;;0.87;0.63;;;19.50;54.00;;;;;;20810;6774;117155;-88
2022/09/10 07:28:13;;;;;;;0.97;0.63;;;19.20;54.50;;;;;;20610;6744;306143;-88
2022/09/10 07:30:50;;;;;;;0.97;0.90;;;19.40;54.40;;;;;;20676;6757;281250;-85
2022/09/10 07:33:26;;;;;;;1.33;0.60;;;19.70;54.20;;;;;;20789;6772;117006;-85
2022/09/10 07:36:02;;;;;;;1.70;0.70;;;19.70;54.00;;;;;;20794;6753;119768;-87
2022/09/10 07:38:37;;;;;;;1.40;0.70;;;19.60;54.30;;;;;;20575;6776;293676;-87
2022/09/10 07:41:14;;;;;;;1.47;0.80;;;19.90;53.80;;;;;;20651;6776;118762;-88
2022/09/10 07:43:54;;;;;;;1.20;0.63;;;20.50;52.30;;;;;;20604;6733;279885;-88
2022/09/10 07:46:30;;;;;;;2.30;0.60;;;20.50;52.30;;;;;;20549;6735;305738;-90
2022/09/10 07:49:06;;;;;;;1.40;1.10;;;21.00;51.20;;;;;;20685;6735;276808;-90
2022/09/10 07:51:41;;;;;;;0.80;0.80;;;21.50;50.50;;;;;;20379;6748;279647;-89
2022/09/10 07:54:18;;;;;;;0.70;0.70;;;21.80;49.60;;;;;;20602;6765;304657;-89
2022/09/10 07:56:53;;;;;;;1.93;0.77;;;22.10;49.10;;;;;;20819;6765;117156;-87
2022/09/10 07:59:29;;;;;;;0.50;0.50;;;21.60;49.80;;;;;;20830;6756;118875;-88
2022/09/10 08:02:06;;;;;;;1.43;0.60;;;21.60;49.80;;;;;;20690;6719;276977;-90
2022/09/10 08:04:41;;;;;;;0.80;0.60;;;21.60;49.10;;;;;;20925;6728;117945;-86
2022/09/10 08:07:18;;;;;;;1.03;0.60;;;21.60;49.30;;;;;;20896;6784;117511;-89
2022/09/10 08:09:53;;;;;;;1.50;0.70;;;21.40;49.70;;;;;;20640;6728;295709;-89
2022/09/10 08:12:28;;;;;;;1.10;0.60;;;21.50;49.40;;;;;;20817;6758;117032;-87
2022/09/10 08:15:04;;;;;;;1.30;0.50;;;21.60;49.80;;;;;;20643;6735;295833;-87
2022/09/10 08:17:40;;;;;;;0.47;0.43;;;21.90;48.70;;;;;;20834;6741;118170;-88
2022/09/10 08:20:17;;;;;;;1.03;0.50;;;22.10;48.90;;;;;;20752;6771;119359;-88
2022/09/10 08:22:54;;;;;;;1.17;0.40;;;22.10;49.30;;;;;;20848;6743;118659;-87
2022/09/10 08:25:28;;;;;;;0.60;0.57;;;22.10;49.60;;;;;;20722;6750;308195;-86
2022/09/10 08:28:04;;;;;;;0.70;0.40;;;22.80;49.30;;;;;;20800;6739;118880;-88
2022/09/10 08:30:40;;;;;;;0.93;0.40;;;22.80;48.90;;;;;;20819;6728;117570;-87
2022/09/10 08:33:17;;;;;;;0.37;0.33;;;22.80;48.90;;;;;;20840;6745;117137;-90
2022/09/10 08:35:56;;;;;;;0.43;0.30;;;23.10;47.30;;;;;;20630;6740;305636;-90
2022/09/10 08:38:31;;;;;;;2.00;0.33;;;23.30;47.70;;;;;;20887;6743;117022;-90
2022/09/10 08:41:16;;;;;;;0.70;0.30;;;23.20;47.40;;;;;;20580;6734;279111;-88
2022/09/10 08:43:56;;;;;;;0.67;0.40;;;23.50;46.70;;;;;;20409;6823;276481;-89
2022/09/10 08:46:49;;;;;;;;;;;;;;;;;;;;;
2022/09/10 08:49:47;;;;;;;;;;;;;;;;;;;;;
2022/09/10 08:52:20;;;;;;;1.50;0.50;;;24.10;45.90;;;;;;20840;6750;123783;-86
2022/09/10 08:55:15;;;;;;;0.40;0.40;;;23.90;46.40;;;;;;20503;6759;312762;-86
2022/09/10 08:57:50;;;;;;;1.53;0.50;;;24.00;46.10;;;;;;20743;6774;127018;-84
2022/09/10 09:00:26;;;;;;;1.17;0.60;;;24.10;46.40;;;;;;20803;6774;118454;-85
2022/09/10 09:03:28;;;;;;;2.80;0.67;;;23.90;46.00;;;;;;20590;6774;308625;-87
2022/09/10 09:06:04;;;;;;;3.50;0.70;;;24.40;43.80;;;;;;20582;6759;310556;-85
2022/09/10 09:08:47;;;;;;;1.80;0.70;;;24.30;43.90;;;;;;20816;6759;117605;-85
2022/09/10 09:11:33;;;;;;;4.20;0.77;;;23.70;45.20;;;;;;20774;6774;117236;-84
2022/09/10 09:14:44;;;;;;;1.40;0.73;;;23.60;44.40;;;;;;20212;6746;309691;-84
2022/09/10 09:17:23;;;;;;;2.47;1.00;;;23.70;43.40;;;;;;20268;6758;278275;-86
2022/09/10 09:20:21;;;;;;;3.27;0.87;;;23.90;43.10;;;;;;20795;6784;140449;-84
2022/09/10 09:23:26;;;;;;;1.60;0.70;;;23.60;43.60;;;;;;20639;6763;296387;-86
2022/09/10 09:26:12;;;;;;;1.80;1.07;;;23.50;44.50;;;;;;20772;6763;117534;-86
2022/09/10 09:28:58;;;;;;;1.63;0.70;;;23.30;45.20;;;;;;20779;6763;117099;-85
2022/09/10 09:31:37;;;;;;;2.93;0.80;;;23.10;45.90;;;;;;20822;6763;118016;-85
2022/09/10 09:34:36;;;;;;;2.67;0.90;;;22.80;46.20;;;;;;20712;6762;117458;-85
2022/09/10 09:37:14;;;;;;;3.67;1.30;;;22.70;46.80;;;;;;20612;6762;306539;-85
2022/09/10 09:40:04;;;;;;;7.57;1.30;;;23.00;47.30;;;;;;20717;6756;118255;-85
2022/09/10 09:42:52;;;;;;;15.57;2.17;;;22.70;47.30;;;;;;20819;6761;116995;-87
2022/09/10 09:45:46;;;;;;;;;;;;;;;;;;;;;
2022/09/10 09:48:10;;;;;;;7.50;1.27;;;22.80;47.30;;;;;;20494;6750;308212;-86
2022/09/10 09:50:46;;;;;;;270.83;17.40;;;23.20;47.00;;;;;;20579;6765;289559;-85
2022/09/10 09:54:31;;;;;;;;;;;;;;;;;;;;;
2022/09/10 09:56:05;;;;;;;156.93;12.33;;;23.60;45.70;;;;;;20215;6835;117805;-87
2022/09/10 09:58:39;;;;;;;278.37;15.30;;;23.10;47.20;;;;;;20857;6748;118054;-86
2022/09/10 10:01:14;;;;;;;206.93;16.00;;;23.10;46.80;;;;;;20661;6763;121791;-86
2022/09/10 10:04:29;;;;;;;;;;;;;;;;;;;;;
2022/09/10 10:06:49;;;;;;;66.87;5.50;;;22.70;47.50;;;;;;20526;6832;117945;-86
2022/09/10 10:09:24;;;;;;;51.30;5.05;;;22.60;47.70;;;;;;19444;6775;345292;-89
2022/09/10 10:12:13;;;;;;;;;;;;;;;;;;;;;
2022/09/10 10:14:38;;;;;;;13.50;2.03;;;23.00;46.90;;;;;;20830;6744;117241;-87
2022/09/10 10:17:44;;;;;;;13.43;1.80;;;22.90;46.90;;;;;;20244;6786;317508;-90
2022/09/10 10:20:17;;;;;;;1.97;0.80;;;23.20;46.30;;;;;;20158;6827;117825;-86
2022/09/10 10:22:59;;;;;;;2.23;0.93;;;23.30;46.10;;;;;;20843;6743;117454;-86
2022/09/10 10:25:40;;;;;;;2.93;1.23;;;23.20;46.30;;;;;;20418;6771;310052;-86
2022/09/10 10:28:20;;;;;;;4.37;1.30;;;23.40;45.90;;;;;;20520;6777;336740;-86
2022/09/10 10:30:55;;;;;;;2.23;0.70;;;23.80;45.60;;;;;;20829;6759;120851;-85
2022/09/10 10:33:47;;;;;;;2.30;0.70;;;23.90;45.60;;;;;;20592;6748;307362;-87
2022/09/10 10:36:23;;;;;;;2.28;0.90;;;24.10;44.40;;;;;;20589;6762;311434;-86
2022/09/10 10:39:19;;;;;;;;;;;;;;;;;;;;;
2022/09/10 10:42:51;;;;;;;1.57;0.83;;;24.60;43.40;;;;;;20201;6876;118612;-89
2022/09/10 10:44:52;;;;;;;1.20;0.80;;;24.50;43.60;;;;;;20156;6750;308101;-86
2022/09/10 10:47:57;;;;;;;1.00;0.80;;;24.60;43.30;;;;;;20753;6750;117237;-86
2022/09/10 10:50:43;;;;;;;0.70;0.70;;;24.50;43.50;;;;;;20048;6831;121228;-86
2022/09/10 10:53:35;;;;;;;;;;;;;;;;;;;;;
2022/09/10 10:59:43;;;;;;;0.90;0.70;;;24.60;41.50;;;;;;20165;6766;117463;-89
2022/09/10 11:02:22;;;;;;;1.33;0.73;;;24.20;42.10;;;;;;20200;6831;312500;-85
2022/09/10 11:04:58;;;;;;;1.20;0.80;;;24.10;42.30;;;;;;20516;6741;278771;-85
2022/09/10 11:07:43;;;;;;;1.90;0.73;;;24.30;42.70;;;;;;20540;6756;318476;-85
2022/09/10 11:10:22;;;;;;;1.20;0.70;;;24.40;42.00;;;;;;20615;6812;277543;-87
2022/09/10 11:13:24;;;;;;;0.62;0.60;;;24.50;41.70;;;;;;20471;6747;334493;-86
2022/09/10 11:16:15;;;;;;;0.40;0.40;;;24.60;42.20;;;;;;20640;6812;117829;-86
2022/09/10 11:18:41;;;;;;;0.50;0.47;;;24.40;42.60;;;;;;20869;6741;117696;-85
2022/09/10 11:25:02;;;;;;;0.63;0.63;;;24.10;43.30;;;;;;20692;6770;117647;-86
2022/09/10 11:27:37;;;;;;;1.20;0.80;;;24.10;43.60;;;;;;20683;6749;307496;-86
2022/09/10 11:30:18;;;;;;;1.20;0.60;;;25.20;42.30;;;;;;20680;6749;276590;-86
2022/09/10 11:33:16;;;;;;;5.03;1.13;;;25.40;42.20;;;;;;20831;6760;117096;-85
2022/09/10 11:36:11;;;;;;;106.18;6.62;;;25.40;42.20;;;;;;20404;6816;337951;-85
2022/09/10 11:39:00;;;;;;;68.17;5.53;;;25.60;41.10;;;;;;20824;6757;123822;-85
2022/09/10 11:41:40;;;;;;;140.02;7.57;;;25.50;40.50;;;;;;20610;6751;324163;-85
2022/09/10 11:44:43;;;;;;;8.67;1.10;;;25.40;40.40;;;;;;20654;6788;118550;-84
2022/09/10 11:47:25;;;;;;;39.37;2.97;;;25.10;41.30;;;;;;20598;6757;304202;-84
2022/09/10 11:50:09;;;;;;;43.23;3.50;;;25.10;41.30;;;;;;20788;6765;118264;-83
2022/09/10 11:52:43;;;;;;;26.47;2.67;;;24.80;41.50;;;;;;20591;6757;282323;-84
2022/09/10 11:55:20;;;;;;;9.17;1.30;;;24.80;41.50;;;;;;20654;6765;118342;-84
2022/09/10 11:58:16;;;;;;;;;;;;;;;;;;;;;
2022/09/10 12:01:31;;;;;;;;;;;;;;;;;;;;;
2022/09/10 12:04:08;;;;;;;3.97;1.23;;;24.50;41.40;;;;;;20718;6515;308559;-82
2022/09/10 12:06:56;;;;;;;3.07;1.10;;;24.50;41.50;;;;;;20345;6848;282268;-84
2022/09/10 12:09:31;;;;;;;2.70;1.00;;;24.50;41.00;;;;;;20684;6842;117770;-84
2022/09/10 12:12:11;;;;;;;2.40;0.80;;;24.20;41.50;;;;;;20525;6825;283823;-84
2022/09/10 12:14:35;;;;;;;1.47;0.87;;;24.20;40.90;;;;;;20554;6825;312750;-83
2022/09/10 12:17:02;;;;;;;0.97;0.70;;;24.50;40.70;;;;;;20687;6852;117185;-84
2022/09/10 12:19:28;;;;;;;1.55;0.90;;;24.40;40.70;;;;;;20547;6825;307451;-84
2022/09/10 12:21:59;;;;;;;2.67;0.67;;;24.50;40.70;;;;;;20750;6825;123935;-85
2022/09/10 12:24:24;;;;;;;2.47;0.83;;;24.40;41.00;;;;;;20423;6825;283056;-84
2022/09/10 12:26:50;;;;;;;1.75;0.80;;;24.50;41.30;;;;;;20471;6852;310262;-84
2022/09/10 12:29:32;;;;;;;2.33;0.90;;;24.70;40.50;;;;;;20505;6825;306938;-83
2022/09/10 12:32:08;;;;;;;8.47;1.40;;;24.90;40.30;;;;;;20485;6825;307806;-85
2022/09/10 12:34:33;;;;;;;2.83;1.20;;;25.10;40.00;;;;;;20202;6852;283880;-85
2022/09/10 12:36:58;;;;;;;42.00;3.08;;;25.20;40.60;;;;;;20550;6825;278241;-84
2022/09/10 12:39:24;;;;;;;68.00;5.65;;;25.20;39.10;;;;;;20700;6852;117966;-85
2022/09/10 12:41:49;;;;;;;9.30;1.37;;;24.90;39.40;;;;;;20530;6825;279032;-85
2022/09/10 12:44:35;;;;;;;2.62;1.00;;;24.80;38.60;;;;;;20569;6821;310816;-86
2022/09/10 12:47:17;;;;;;;2.13;0.83;;;24.80;38.60;;;;;;20795;6821;117570;-84
2022/09/10 12:49:46;;;;;;;1.90;0.57;;;24.40;38.90;;;;;;20776;6821;116329;-84
2022/09/10 12:52:13;;;;;;;0.83;0.43;;;23.90;39.30;;;;;;20783;6821;117361;-84
2022/09/10 12:55:02;;;;;;;1.60;0.83;;;23.50;39.70;;;;;;20561;6835;117182;-84
2022/09/10 12:57:41;;;;;;;2.23;0.83;;;23.20;40.20;;;;;;19991;6835;277758;-85
2022/09/10 13:00:20;;;;;;;1.93;0.60;;;23.30;40.10;;;;;;20725;6835;120473;-86
2022/09/10 13:03:10;;;;;;;1.03;0.70;;;23.60;40.40;;;;;;20437;6869;279774;-88
2022/09/10 13:05:47;;;;;;;2.20;1.17;;;23.60;40.40;;;;;;20429;6867;297893;-85
2022/09/10 13:08:36;;;;;;;2.87;1.20;;;24.00;40.10;;;;;;20487;6852;309122;-86
2022/09/10 13:11:15;;;;;;;1.08;0.90;;;24.30;39.90;;;;;;20457;6857;279454;-86
2022/09/10 13:13:41;;;;;;;3.73;0.90;;;24.40;39.50;;;;;;20686;6827;117265;-86
2022/09/10 13:16:06;;;;;;;1.17;0.73;;;24.20;39.60;;;;;;20388;6857;307976;-85
2022/09/10 13:18:32;;;;;;;2.10;0.80;;;24.10;39.90;;;;;;20405;6859;309760;-86
2022/09/10 13:20:58;;;;;;;3.07;1.10;;;24.10;39.70;;;;;;20621;6868;117813;-86
2022/09/10 13:23:43;;;;;;;6.82;1.05;;;23.90;40.10;;;;;;20463;6853;312850;-85
2022/09/10 13:26:34;;;;;;;2.10;0.83;;;23.80;40.80;;;;;;20622;6870;118815;-86
2022/09/10 13:28:59;;;;;;;1.07;0.60;;;23.50;40.80;;;;;;20415;6868;281333;-90